createdAt,value
2023-03-17T08:39:12.975Z,100038.45
2023-03-17T08:41:41.824Z,100035.54
2023-03-17T08:44:10.907Z,100039.11
2023-03-17T08:47:25.118Z,100045.13
2023-03-17T08:49:53.508Z,100046.33
2023-03-17T08:52:22.488Z,100049.10
2023-03-17T08:54:50.474Z,100047.02
2023-03-17T08:57:19.661Z,100051.52
2023-03-17T08:59:48.205Z,100053.95
2023-03-17T09:02:16.260Z,100054.58
2023-03-17T09:04:44.393Z,100057.49
2023-03-17T09:07:13.325Z,100057.61
2023-03-17T09:09:42.494Z,100059.96
2023-03-17T09:12:11.232Z,100060.97
2023-03-17T09:14:44.404Z,100067.23
2023-03-17T09:17:13.964Z,100063.80
2023-03-17T09:19:42.013Z,100059.04
2023-03-17T09:22:14.786Z,100061.77
2023-03-17T09:24:42.731Z,100063.14
2023-03-17T09:27:13.595Z,100062.91
2023-03-17T09:29:42.801Z,100067.96
2023-03-17T09:32:11.314Z,100070.40
2023-03-17T09:34:39.464Z,100069.77
2023-03-17T09:37:10.060Z,100071.02
2023-03-17T09:39:39.206Z,100071.20
2023-03-17T09:42:33.557Z,100074.09
2023-03-17T09:45:13.477Z,100077.48
2023-03-17T09:48:21.800Z,100078.13
2023-03-17T09:51:05.111Z,100080.09
2023-03-17T09:53:42.883Z,100078.77
2023-03-17T09:56:16.416Z,100079.58
2023-03-17T09:58:59.636Z,100085.09
2023-03-17T10:01:28.313Z,100088.04
2023-03-17T10:03:56.542Z,100086.19
2023-03-17T10:06:39.052Z,100086.58
2023-03-17T10:09:28.374Z,100081.50
2023-03-17T10:12:11.156Z,100084.73
2023-03-17T10:14:56.441Z,100085.48
2023-03-17T10:17:31.077Z,100082.52
2023-03-17T10:20:29.236Z,100082.98
2023-03-17T10:22:59.712Z,100086.48
2023-03-17T10:25:35.534Z,100089.90
2023-03-17T10:28:14.529Z,100087.55
2023-03-17T10:30:44.055Z,100090.98
2023-03-17T10:33:12.725Z,100089.67
2023-03-17T10:35:44.897Z,100089.66
2023-03-17T10:38:21.568Z,100090.02
2023-03-17T10:41:07.017Z,100092.91
2023-03-17T10:43:41.146Z,100095.48
2023-03-17T10:46:22.420Z,100099.33
2023-03-17T10:48:56.573Z,100098.89
2023-03-17T10:51:32.691Z,100099.25
2023-03-17T10:54:02.317Z,100101.84
2023-03-17T10:56:34.070Z,100102.55
2023-03-17T10:59:15.076Z,100103.30
2023-03-17T11:01:54.172Z,100105.73
2023-03-17T11:04:30.869Z,100105.05
2023-03-17T11:07:01.172Z,100103.18
2023-03-17T11:09:30.680Z,100103.31
2023-03-17T11:12:18.874Z,100102.75
2023-03-17T11:14:48.458Z,100106.45
2023-03-17T11:17:19.120Z,100102.90
2023-03-17T11:20:07.445Z,100106.38
2023-03-17T11:22:43.132Z,100109.23
2023-03-17T11:25:19.466Z,100109.52
2023-03-17T11:27:52.208Z,100109.38
2023-03-17T11:30:40.133Z,100108.47
2023-03-17T11:33:23.298Z,100110.77
2023-03-17T11:36:01.091Z,100112.76
2023-03-17T11:38:31.018Z,100105.86
2023-03-17T11:41:21.102Z,100111.08
2023-03-17T11:44:27.274Z,100117.64
2023-03-17T11:47:06.715Z,100119.34
2023-03-17T11:49:37.727Z,100118.80
2023-03-17T11:52:38.899Z,100120.33
2023-03-17T11:55:31.311Z,100120.10
2023-03-17T11:58:05.349Z,100122.91
2023-03-17T12:00:43.840Z,100120.13
2023-03-17T12:03:20.185Z,100128.02
2023-03-17T12:05:50.475Z,100130.70
2023-03-17T12:08:38.713Z,100132.23
2023-03-17T12:11:10.690Z,100134.04
2023-03-17T12:13:43.066Z,100134.84
2023-03-17T12:16:21.923Z,100134.15
2023-03-17T12:19:24.649Z,100137.98
2023-03-17T12:21:59.458Z,100136.12
2023-03-17T12:24:43.936Z,100137.63
2023-03-17T12:27:28.739Z,100141.22
2023-03-17T12:30:06.622Z,100142.29
2023-03-17T12:32:46.697Z,100139.84
2023-03-17T12:35:29.635Z,100146.77
2023-03-17T12:37:59.265Z,100150.73
2023-03-17T12:40:36.381Z,100154.13
2023-03-17T12:43:29.321Z,100155.56
2023-03-17T12:46:08.982Z,100155.36
2023-03-17T12:48:50.555Z,100158.25
2023-03-17T12:51:43.928Z,100158.30
2023-03-17T12:54:15.414Z,100159.03
2023-03-17T12:56:44.941Z,100157.15
2023-03-17T12:59:21.280Z,100160.27
2023-03-17T13:01:57.531Z,100153.64
2023-03-17T13:04:32.408Z,100158.64
2023-03-17T13:07:18.301Z,100156.63
2023-03-17T13:09:55.324Z,100164.19
2023-03-17T13:12:44.524Z,100161.30
2023-03-17T13:15:26.932Z,100165.40
2023-03-17T13:18:22.618Z,100168.80
2023-03-17T13:20:56.687Z,100168.73
2023-03-17T13:23:41.921Z,100166.12
2023-03-17T13:26:20.963Z,100171.10
2023-03-17T13:28:51.087Z,100169.17
2023-03-17T13:31:31.185Z,100172.13
2023-03-17T13:34:14.301Z,100170.86
2023-03-17T13:37:01.724Z,100168.17
2023-03-17T13:39:42.315Z,100169.71
2023-03-17T13:42:25.909Z,100171.80
2023-03-17T13:45:22.098Z,100175.78
2023-03-17T13:47:51.278Z,100177.58
2023-03-17T13:50:25.477Z,100181.86
2023-03-17T13:52:56.560Z,100190.20
2023-03-17T13:55:25.145Z,100192.29
2023-03-17T13:58:23.250Z,100192.75
2023-03-17T14:00:56.672Z,100190.39
2023-03-17T14:03:36.712Z,100188.27
2023-03-17T14:06:06.748Z,100191.07
2023-03-17T14:08:37.574Z,100194.66
2023-03-17T14:11:36.688Z,100199.06
2023-03-17T14:14:37.313Z,100198.86
2023-03-17T14:17:21.093Z,100203.30
2023-03-17T14:20:19.794Z,100203.94
2023-03-17T14:22:53.867Z,100203.69
2023-03-17T14:25:36.178Z,100206.41
2023-03-17T14:28:06.139Z,100204.25
2023-03-17T14:30:35.027Z,100205.16
2023-03-17T14:33:23.612Z,100206.87
2023-03-17T14:35:53.046Z,100210.52
2023-03-17T14:38:31.354Z,100212.48
2023-03-17T14:41:20.900Z,100210.66
2023-03-17T14:43:49.629Z,100219.11
2023-03-17T14:46:22.994Z,100220.71
2023-03-17T14:48:56.464Z,100215.80
2023-03-17T14:51:26.462Z,100217.23
2023-03-17T14:53:57.406Z,100219.27
2023-03-17T14:56:35.760Z,100216.45
2023-03-17T14:59:16.216Z,100213.56
2023-03-17T15:01:47.681Z,100218.52
2023-03-17T15:04:29.854Z,100216.52
2023-03-17T15:07:02.784Z,100215.61
2023-03-17T15:09:34.168Z,100217.92
2023-03-17T15:12:13.303Z,100219.13
2023-03-17T15:14:42.298Z,100220.67
2023-03-17T15:17:21.981Z,100218.84
2023-03-17T15:19:52.823Z,100216.77
2023-03-17T15:22:24.678Z,100222.59
2023-03-17T15:25:00.234Z,100222.25
2023-03-17T15:27:30.017Z,100224.86
2023-03-17T15:29:58.522Z,100224.52
2023-03-17T15:32:26.979Z,100231.24
2023-03-17T15:34:57.136Z,100236.23
2023-03-17T15:37:29.443Z,100234.85
2023-03-17T15:39:57.992Z,100236.96
2023-03-17T15:42:31.166Z,100238.41
2023-03-17T15:45:02.988Z,100241.36
2023-03-17T15:47:32.944Z,100247.48
2023-03-17T15:50:25.540Z,100253.20
2023-03-17T15:52:56.460Z,100252.23
2023-03-17T15:55:29.907Z,100256.80
2023-03-17T15:57:58.466Z,100256.73
2023-03-17T16:00:34.830Z,100262.03
2023-03-17T16:03:28.332Z,100263.66
2023-03-17T16:05:56.271Z,100263.73
2023-03-17T16:08:24.919Z,100270.67
2023-03-17T16:10:53.476Z,100273.48
2023-03-17T16:13:22.398Z,100273.13
2023-03-17T16:15:57.151Z,100271.34
2023-03-17T16:18:36.131Z,100273.86
2023-03-17T16:21:09.154Z,100274.23
2023-03-17T16:23:40.216Z,100280.61
2023-03-17T16:26:15.572Z,100278.95
2023-03-17T16:28:46.119Z,100279.92
2023-03-17T16:31:26.822Z,100279.55
2023-03-17T16:33:54.982Z,100283.15
2023-03-17T16:36:23.953Z,100283.77
2023-03-17T16:38:52.147Z,100284.33
2023-03-17T16:41:23.657Z,100286.69
2023-03-17T16:43:55.315Z,100289.48
2023-03-17T16:46:24.162Z,100286.19
2023-03-17T16:48:59.435Z,100290.98
2023-03-17T16:51:29.783Z,100295.71
2023-03-17T16:54:00.761Z,100298.42
2023-03-17T16:56:29.986Z,100298.12
2023-03-17T16:58:58.786Z,100298.77
2023-03-17T17:01:27.853Z,100303.13
2023-03-17T17:03:56.888Z,100302.31
2023-03-17T17:06:28.292Z,100308.52
2023-03-17T17:08:56.331Z,100311.05
2023-03-17T17:11:24.519Z,100317.80
2023-03-17T17:13:53.531Z,100314.56
2023-03-17T17:16:21.929Z,100314.70
2023-03-17T17:18:49.951Z,100317.61
2023-03-17T17:21:19.083Z,100319.56
2023-03-17T17:23:47.219Z,100321.49
2023-03-17T17:26:21.232Z,100323.76
2023-03-17T17:28:49.705Z,100326.87
2023-03-17T17:31:17.989Z,100324.73
2023-03-17T17:33:47.093Z,100321.79
2023-03-17T17:36:16.240Z,100326.27
2023-03-17T17:38:44.536Z,100325.47
2023-03-17T17:41:12.537Z,100324.64
2023-03-17T17:43:41.364Z,100324.18
2023-03-17T17:46:11.930Z,100323.72
2023-03-17T17:48:39.923Z,100322.03
2023-03-17T17:51:07.861Z,100324.74
2023-03-17T17:53:38.354Z,100326.05
2023-03-17T17:56:06.813Z,100331.90
2023-03-17T17:58:36.314Z,100329.34
2023-03-17T18:01:05.621Z,100329.80
2023-03-17T18:03:33.987Z,100334.17
2023-03-17T18:06:02.612Z,100336.48
2023-03-17T18:08:30.881Z,100340.20
2023-03-17T18:10:59.737Z,100340.81
2023-03-17T18:13:28.307Z,100339.88
2023-03-17T18:15:57.181Z,100342.04
2023-03-17T18:18:27.533Z,100342.95
2023-03-17T18:20:55.832Z,100343.84
2023-03-17T18:23:24.092Z,100345.30
2023-03-17T18:25:59.941Z,100341.45
2023-03-17T18:28:28.186Z,100342.12
2023-03-17T18:31:09.608Z,100348.95
2023-03-17T18:33:40.604Z,100347.02
2023-03-17T18:36:08.975Z,100348.34
2023-03-17T18:38:37.708Z,100343.98
2023-03-17T18:41:06.998Z,100346.22
2023-03-17T18:43:38.872Z,100346.77
2023-03-17T18:46:07.555Z,100345.34
2023-03-17T18:48:36.432Z,100343.75
2023-03-17T18:51:06.954Z,100343.83
2023-03-17T18:53:35.666Z,100343.55
2023-03-17T18:56:07.088Z,100346.61
2023-03-17T18:58:36.209Z,100348.11
2023-03-17T19:01:05.110Z,100346.41
2023-03-17T19:03:35.301Z,100346.10
2023-03-17T19:06:14.277Z,100345.88
2023-03-17T19:08:42.460Z,100347.98
2023-03-17T19:11:11.489Z,100346.23
2023-03-17T19:13:39.951Z,100345.98
2023-03-17T19:16:11.880Z,100349.09
2023-03-17T19:18:42.497Z,100351.15
2023-03-17T19:21:11.377Z,100346.31
2023-03-17T19:23:43.692Z,100346.75
2023-03-17T19:26:11.963Z,100349.98
2023-03-17T19:28:39.923Z,100346.94
2023-03-17T19:31:07.865Z,100341.21
2023-03-17T19:33:36.650Z,100344.38
2023-03-17T19:36:11.968Z,100340.37
2023-03-17T19:38:43.719Z,100339.47
2023-03-17T19:41:12.165Z,100334.88
2023-03-17T19:43:41.618Z,100338.29
2023-03-17T19:46:11.416Z,100340.04
2023-03-17T19:48:40.881Z,100338.08
2023-03-17T19:51:09.419Z,100337.36
2023-03-17T19:53:45.024Z,100337.09
2023-03-17T19:56:12.978Z,100334.08
2023-03-17T19:58:41.412Z,100339.91
2023-03-17T20:01:09.672Z,100340.55
2023-03-17T20:03:42.467Z,100344.06
2023-03-17T20:06:16.898Z,100346.24
2023-03-17T20:08:45.821Z,100348.17
2023-03-17T20:11:13.976Z,100346.77
2023-03-17T20:13:42.038Z,100346.80
2023-03-17T20:16:10.164Z,100347.85
2023-03-17T20:18:38.237Z,100347.50
2023-03-17T20:21:11.720Z,100344.15
2023-03-17T20:23:39.841Z,100344.44
2023-03-17T20:26:08.455Z,100340.69
2023-03-17T20:28:36.933Z,100337.41
2023-03-17T20:31:05.032Z,100337.95
2023-03-17T20:33:34.991Z,100336.20
2023-03-17T20:36:04.767Z,100340.88
2023-03-17T20:38:36.893Z,100335.91
2023-03-17T20:41:25.630Z,100337.66
2023-03-17T20:43:53.650Z,100337.30
2023-03-17T20:46:22.777Z,100331.80
2023-03-17T20:48:58.788Z,100330.91
2023-03-17T20:51:31.355Z,100329.46
2023-03-17T20:54:00.858Z,100325.30
2023-03-17T20:56:29.843Z,100326.94
2023-03-17T20:59:04.976Z,100329.18
2023-03-17T21:01:33.603Z,100331.33
2023-03-17T21:04:05.777Z,100334.45
2023-03-17T21:06:34.353Z,100334.01
2023-03-17T21:09:02.692Z,100335.96
2023-03-17T21:11:31.876Z,100335.82
2023-03-17T21:14:00.004Z,100338.46
2023-03-17T21:16:28.601Z,100336.89
2023-03-17T21:18:59.065Z,100340.17
2023-03-17T21:21:27.429Z,100340.95
2023-03-17T21:23:55.812Z,100338.50
2023-03-17T21:26:24.775Z,100340.80
2023-03-17T21:28:53.556Z,100340.85
2023-03-17T21:31:21.606Z,100337.58
2023-03-17T21:33:51.123Z,100344.67
2023-03-17T21:36:20.937Z,100342.53
2023-03-17T21:38:50.208Z,100343.59
2023-03-17T21:41:30.532Z,100345.36
2023-03-17T21:43:59.612Z,100345.77
2023-03-17T21:46:27.726Z,100344.34
2023-03-17T21:48:56.125Z,100342.45
2023-03-17T21:51:26.101Z,100343.17
2023-03-17T21:53:54.498Z,100339.63
2023-03-17T21:56:23.125Z,100336.83
2023-03-17T21:58:52.226Z,100334.67
2023-03-17T22:01:22.207Z,100332.98
2023-03-17T22:03:51.306Z,100334.59
2023-03-17T22:06:20.377Z,100336.05
2023-03-17T22:08:50.627Z,100335.05
2023-03-17T22:11:20.133Z,100336.33
2023-03-17T22:13:48.838Z,100335.70
2023-03-17T22:16:17.214Z,100339.23
2023-03-17T22:18:47.555Z,100340.36
2023-03-17T22:21:16.139Z,100341.85
2023-03-17T22:23:46.373Z,100343.65
2023-03-17T22:26:17.242Z,100342.75
2023-03-17T22:28:50.905Z,100346.20
2023-03-17T22:31:24.038Z,100346.41
2023-03-17T22:33:55.345Z,100343.80
2023-03-17T22:36:28.140Z,100346.31
2023-03-17T22:39:00.176Z,100345.14
2023-03-17T22:41:32.139Z,100347.45
2023-03-17T22:44:04.119Z,100350.73
2023-03-17T22:46:35.140Z,100355.36
2023-03-17T22:49:06.815Z,100353.52
2023-03-17T22:51:38.195Z,100351.77
2023-03-17T22:54:13.245Z,100351.33
2023-03-17T22:56:45.495Z,100348.95
2023-03-17T22:59:16.799Z,100347.66
2023-03-17T23:01:48.185Z,100350.27
2023-03-17T23:04:20.092Z,100349.58
2023-03-17T23:06:52.487Z,100350.50
2023-03-17T23:09:24.147Z,100343.98
2023-03-17T23:11:54.391Z,100346.60
2023-03-17T23:14:26.569Z,100345.88
2023-03-17T23:16:57.718Z,100348.20
2023-03-17T23:19:31.479Z,100347.16
2023-03-17T23:22:03.119Z,100346.69
2023-03-17T23:24:33.696Z,100352.41
2023-03-17T23:27:04.476Z,100354.19
2023-03-17T23:29:35.135Z,100357.88
2023-03-17T23:32:06.713Z,100354.99
2023-03-17T23:42:32.848Z,100358.94
2023-03-17T23:45:01.530Z,100353.88
2023-03-17T23:47:29.342Z,100355.91
2023-03-17T23:49:57.876Z,100358.52
2023-03-17T23:52:25.048Z,100359.36
2023-03-17T23:54:52.778Z,100363.08
2023-03-17T23:57:19.547Z,100361.65
2023-03-17T23:59:46.401Z,100361.41
